sensor_id;sensor_type;location;lat;lon;timestamp;P1;durP1;ratioP1;P2;durP2;ratioP2
59127;SDS011;44912;52.754;5.994;2024-01-30T00:01:15;20.17;;;16.02;;
59127;SDS011;44912;52.754;5.994;2024-01-30T00:03:41;22.60;;;15.75;;
59127;SDS011;44912;52.754;5.994;2024-01-30T00:06:07;20.38;;;15.43;;
59127;SDS011;44912;52.754;5.994;2024-01-30T00:08:33;21.50;;;15.27;;
59127;SDS011;44912;52.754;5.994;2024-01-30T00:10:59;21.13;;;15.63;;
59127;SDS011;44912;52.754;5.994;2024-01-30T00:13:25;21.77;;;16.10;;
59127;SDS011;44912;52.754;5.994;2024-01-30T00:15:51;21.40;;;15.40;;
59127;SDS011;44912;52.754;5.994;2024-01-30T00:18:17;20.17;;;15.23;;
59127;SDS011;44912;52.754;5.994;2024-01-30T00:20:43;22.05;;;16.38;;
59127;SDS011;44912;52.754;5.994;2024-01-30T00:23:09;20.17;;;15.80;;
59127;SDS011;44912;52.754;5.994;2024-01-30T00:25:34;22.63;;;15.77;;
59127;SDS011;44912;52.754;5.994;2024-01-30T00:28:00;20.88;;;15.70;;
59127;SDS011;44912;52.754;5.994;2024-01-30T00:30:26;21.13;;;15.77;;
59127;SDS011;44912;52.754;5.994;2024-01-30T00:32:51;21.67;;;15.68;;
59127;SDS011;44912;52.754;5.994;2024-01-30T00:35:18;21.00;;;16.58;;
59127;SDS011;44912;52.754;5.994;2024-01-30T00:37:44;21.58;;;15.95;;
59127;SDS011;44912;52.754;5.994;2024-01-30T00:40:09;22.35;;;17.13;;
59127;SDS011;44912;52.754;5.994;2024-01-30T00:42:40;21.77;;;16.10;;
59127;SDS011;44912;52.754;5.994;2024-01-30T00:45:15;25.10;;;16.35;;
59127;SDS011;44912;52.754;5.994;2024-01-30T00:47:41;23.88;;;16.92;;
59127;SDS011;44912;52.754;5.994;2024-01-30T00:50:07;24.00;;;16.52;;
59127;SDS011;44912;52.754;5.994;2024-01-30T00:52:33;22.70;;;16.25;;
59127;SDS011;44912;52.754;5.994;2024-01-30T00:54:59;23.55;;;16.95;;
59127;SDS011;44912;52.754;5.994;2024-01-30T00:57:25;24.33;;;16.83;;
59127;SDS011;44912;52.754;5.994;2024-01-30T00:59:52;22.48;;;17.38;;
59127;SDS011;44912;52.754;5.994;2024-01-30T01:02:17;22.55;;;16.60;;
59127;SDS011;44912;52.754;5.994;2024-01-30T01:04:43;23.15;;;18.08;;
59127;SDS011;44912;52.754;5.994;2024-01-30T01:07:09;25.40;;;17.10;;
59127;SDS011;44912;52.754;5.994;2024-01-30T01:09:35;25.92;;;17.02;;
59127;SDS011;44912;52.754;5.994;2024-01-30T01:12:01;22.75;;;16.80;;
59127;SDS011;44912;52.754;5.994;2024-01-30T01:14:27;25.50;;;17.98;;
59127;SDS011;44912;52.754;5.994;2024-01-30T01:16:53;23.65;;;17.85;;
59127;SDS011;44912;52.754;5.994;2024-01-30T01:19:19;24.50;;;18.17;;
59127;SDS011;44912;52.754;5.994;2024-01-30T01:21:44;23.60;;;17.73;;
59127;SDS011;44912;52.754;5.994;2024-01-30T01:24:10;22.40;;;17.52;;
59127;SDS011;44912;52.754;5.994;2024-01-30T01:26:35;23.67;;;16.88;;
59127;SDS011;44912;52.754;5.994;2024-01-30T01:29:01;21.52;;;16.83;;
59127;SDS011;44912;52.754;5.994;2024-01-30T01:31:29;22.08;;;17.15;;
59127;SDS011;44912;52.754;5.994;2024-01-30T01:33:55;22.30;;;16.20;;
59127;SDS011;44912;52.754;5.994;2024-01-30T01:36:20;22.55;;;15.35;;
59127;SDS011;44912;52.754;5.994;2024-01-30T01:38:46;23.75;;;16.85;;
59127;SDS011;44912;52.754;5.994;2024-01-30T01:41:12;24.15;;;17.58;;
59127;SDS011;44912;52.754;5.994;2024-01-30T01:43:37;23.70;;;16.75;;
59127;SDS011;44912;52.754;5.994;2024-01-30T01:46:04;20.92;;;16.83;;
59127;SDS011;44912;52.754;5.994;2024-01-30T01:48:31;23.85;;;17.67;;
59127;SDS011;44912;52.754;5.994;2024-01-30T01:50:57;26.15;;;17.95;;
59127;SDS011;44912;52.754;5.994;2024-01-30T01:53:24;23.45;;;17.73;;
59127;SDS011;44912;52.754;5.994;2024-01-30T01:55:50;22.98;;;18.25;;
59127;SDS011;44912;52.754;5.994;2024-01-30T01:58:18;24.77;;;16.88;;
59127;SDS011;44912;52.754;5.994;2024-01-30T02:00:45;23.23;;;17.38;;
59127;SDS011;44912;52.754;5.994;2024-01-30T02:03:11;24.48;;;17.33;;
59127;SDS011;44912;52.754;5.994;2024-01-30T02:05:40;25.77;;;17.83;;
59127;SDS011;44912;52.754;5.994;2024-01-30T02:08:07;24.33;;;17.88;;
59127;SDS011;44912;52.754;5.994;2024-01-30T02:10:34;24.33;;;17.58;;
59127;SDS011;44912;52.754;5.994;2024-01-30T02:12:59;24.50;;;17.25;;
59127;SDS011;44912;52.754;5.994;2024-01-30T02:15:25;25.52;;;17.45;;
59127;SDS011;44912;52.754;5.994;2024-01-30T02:17:50;21.52;;;16.35;;
59127;SDS011;44912;52.754;5.994;2024-01-30T02:20:16;24.20;;;17.63;;
59127;SDS011;44912;52.754;5.994;2024-01-30T02:22:42;23.27;;;17.35;;
59127;SDS011;44912;52.754;5.994;2024-01-30T02:25:08;22.42;;;16.33;;
59127;SDS011;44912;52.754;5.994;2024-01-30T02:27:33;23.23;;;16.30;;
59127;SDS011;44912;52.754;5.994;2024-01-30T02:29:59;22.88;;;15.85;;
59127;SDS011;44912;52.754;5.994;2024-01-30T02:32:25;22.70;;;16.95;;
59127;SDS011;44912;52.754;5.994;2024-01-30T02:34:50;21.88;;;16.33;;
59127;SDS011;44912;52.754;5.994;2024-01-30T02:37:16;22.45;;;16.27;;
59127;SDS011;44912;52.754;5.994;2024-01-30T02:39:42;21.77;;;15.98;;
59127;SDS011;44912;52.754;5.994;2024-01-30T02:42:07;21.52;;;15.27;;
59127;SDS011;44912;52.754;5.994;2024-01-30T02:44:33;21.25;;;16.13;;
59127;SDS011;44912;52.754;5.994;2024-01-30T02:46:59;19.33;;;14.43;;
59127;SDS011;44912;52.754;5.994;2024-01-30T02:49:24;21.13;;;15.85;;
59127;SDS011;44912;52.754;5.994;2024-01-30T02:51:51;20.85;;;15.15;;
59127;SDS011;44912;52.754;5.994;2024-01-30T02:54:17;23.25;;;16.23;;
59127;SDS011;44912;52.754;5.994;2024-01-30T02:56:43;23.67;;;16.67;;
59127;SDS011;44912;52.754;5.994;2024-01-30T02:59:08;21.63;;;16.05;;
59127;SDS011;44912;52.754;5.994;2024-01-30T03:01:41;20.52;;;14.98;;
59127;SDS011;44912;52.754;5.994;2024-01-30T03:04:11;22.55;;;16.67;;
59127;SDS011;44912;52.754;5.994;2024-01-30T03:06:37;21.60;;;14.88;;
59127;SDS011;44912;52.754;5.994;2024-01-30T03:09:02;20.10;;;14.90;;
59127;SDS011;44912;52.754;5.994;2024-01-30T03:11:29;22.40;;;15.50;;
59127;SDS011;44912;52.754;5.994;2024-01-30T03:13:55;20.88;;;15.23;;
59127;SDS011;44912;52.754;5.994;2024-01-30T03:16:21;22.40;;;16.30;;
59127;SDS011;44912;52.754;5.994;2024-01-30T03:18:47;23.00;;;16.00;;
59127;SDS011;44912;52.754;5.994;2024-01-30T03:21:13;24.42;;;17.25;;
59127;SDS011;44912;52.754;5.994;2024-01-30T03:23:39;22.20;;;15.90;;
59127;SDS011;44912;52.754;5.994;2024-01-30T03:26:05;24.92;;;16.83;;
59127;SDS011;44912;52.754;5.994;2024-01-30T03:28:31;23.58;;;16.02;;
59127;SDS011;44912;52.754;5.994;2024-01-30T03:30:57;22.90;;;16.05;;
59127;SDS011;44912;52.754;5.994;2024-01-30T03:33:22;20.40;;;15.18;;
59127;SDS011;44912;52.754;5.994;2024-01-30T03:35:48;23.92;;;16.23;;
59127;SDS011;44912;52.754;5.994;2024-01-30T03:38:14;23.08;;;15.85;;
59127;SDS011;44912;52.754;5.994;2024-01-30T03:40:39;21.00;;;15.30;;
59127;SDS011;44912;52.754;5.994;2024-01-30T03:43:05;20.40;;;14.90;;
59127;SDS011;44912;52.754;5.994;2024-01-30T03:45:31;22.17;;;15.85;;
59127;SDS011;44912;52.754;5.994;2024-01-30T03:47:56;23.30;;;15.48;;
59127;SDS011;44912;52.754;5.994;2024-01-30T03:50:22;22.10;;;15.82;;
59127;SDS011;44912;52.754;5.994;2024-01-30T03:52:47;19.55;;;14.38;;
59127;SDS011;44912;52.754;5.994;2024-01-30T03:55:13;21.95;;;15.00;;
59127;SDS011;44912;52.754;5.994;2024-01-30T03:57:39;22.05;;;15.40;;
59127;SDS011;44912;52.754;5.994;2024-01-30T04:00:04;21.30;;;15.15;;
59127;SDS011;44912;52.754;5.994;2024-01-30T04:02:30;20.80;;;14.73;;
59127;SDS011;44912;52.754;5.994;2024-01-30T04:04:56;21.65;;;15.38;;
59127;SDS011;44912;52.754;5.994;2024-01-30T04:07:22;21.65;;;15.40;;
59127;SDS011;44912;52.754;5.994;2024-01-30T04:09:47;22.48;;;15.68;;
59127;SDS011;44912;52.754;5.994;2024-01-30T04:12:13;19.88;;;14.38;;
59127;SDS011;44912;52.754;5.994;2024-01-30T04:14:39;20.50;;;14.15;;
59127;SDS011;44912;52.754;5.994;2024-01-30T04:17:04;20.02;;;14.23;;
59127;SDS011;44912;52.754;5.994;2024-01-30T04:19:30;22.25;;;14.85;;
59127;SDS011;44912;52.754;5.994;2024-01-30T04:21:55;18.85;;;14.40;;
59127;SDS011;44912;52.754;5.994;2024-01-30T04:24:21;21.10;;;14.55;;
59127;SDS011;44912;52.754;5.994;2024-01-30T04:26:47;19.92;;;14.30;;
59127;SDS011;44912;52.754;5.994;2024-01-30T04:29:12;19.50;;;14.48;;
59127;SDS011;44912;52.754;5.994;2024-01-30T04:31:38;19.48;;;14.07;;
59127;SDS011;44912;52.754;5.994;2024-01-30T04:34:03;19.70;;;13.68;;
59127;SDS011;44912;52.754;5.994;2024-01-30T04:36:29;19.95;;;13.82;;
59127;SDS011;44912;52.754;5.994;2024-01-30T04:38:54;20.00;;;13.88;;
59127;SDS011;44912;52.754;5.994;2024-01-30T04:41:20;21.15;;;13.75;;
59127;SDS011;44912;52.754;5.994;2024-01-30T04:43:46;19.45;;;13.98;;
59127;SDS011;44912;52.754;5.994;2024-01-30T04:46:11;19.67;;;14.00;;
59127;SDS011;44912;52.754;5.994;2024-01-30T04:48:37;17.33;;;13.43;;
59127;SDS011;44912;52.754;5.994;2024-01-30T04:51:03;21.40;;;15.13;;
59127;SDS011;44912;52.754;5.994;2024-01-30T04:53:30;20.73;;;14.32;;
59127;SDS011;44912;52.754;5.994;2024-01-30T04:55:56;20.70;;;14.63;;
59127;SDS011;44912;52.754;5.994;2024-01-30T04:58:21;19.42;;;13.75;;
59127;SDS011;44912;52.754;5.994;2024-01-30T05:00:47;18.52;;;13.40;;
59127;SDS011;44912;52.754;5.994;2024-01-30T05:03:16;21.10;;;14.10;;
59127;SDS011;44912;52.754;5.994;2024-01-30T05:05:42;19.33;;;14.48;;
59127;SDS011;44912;52.754;5.994;2024-01-30T05:08:08;20.67;;;13.70;;
59127;SDS011;44912;52.754;5.994;2024-01-30T05:10:34;19.25;;;13.98;;
59127;SDS011;44912;52.754;5.994;2024-01-30T05:12:59;18.58;;;14.15;;
59127;SDS011;44912;52.754;5.994;2024-01-30T05:15:25;21.70;;;14.93;;
59127;SDS011;44912;52.754;5.994;2024-01-30T05:17:50;19.52;;;13.95;;
59127;SDS011;44912;52.754;5.994;2024-01-30T05:20:16;20.95;;;14.00;;
59127;SDS011;44912;52.754;5.994;2024-01-30T05:22:42;21.38;;;14.57;;
59127;SDS011;44912;52.754;5.994;2024-01-30T05:25:10;21.50;;;13.80;;
59127;SDS011;44912;52.754;5.994;2024-01-30T05:27:37;22.00;;;14.75;;
59127;SDS011;44912;52.754;5.994;2024-01-30T05:30:03;19.40;;;13.60;;
59127;SDS011;44912;52.754;5.994;2024-01-30T05:32:31;17.60;;;13.32;;
59127;SDS011;44912;52.754;5.994;2024-01-30T05:34:56;17.33;;;13.20;;
59127;SDS011;44912;52.754;5.994;2024-01-30T05:37:22;18.52;;;12.85;;
59127;SDS011;44912;52.754;5.994;2024-01-30T05:39:48;20.63;;;13.07;;
59127;SDS011;44912;52.754;5.994;2024-01-30T05:42:13;20.77;;;13.90;;
59127;SDS011;44912;52.754;5.994;2024-01-30T05:44:40;17.35;;;12.73;;
59127;SDS011;44912;52.754;5.994;2024-01-30T05:47:05;20.33;;;12.65;;
59127;SDS011;44912;52.754;5.994;2024-01-30T05:49:31;19.42;;;12.88;;
59127;SDS011;44912;52.754;5.994;2024-01-30T05:51:57;20.15;;;13.50;;
59127;SDS011;44912;52.754;5.994;2024-01-30T05:54:23;18.80;;;12.98;;
59127;SDS011;44912;52.754;5.994;2024-01-30T05:56:48;19.50;;;12.05;;
59127;SDS011;44912;52.754;5.994;2024-01-30T05:59:14;17.60;;;13.07;;
59127;SDS011;44912;52.754;5.994;2024-01-30T06:01:45;21.50;;;13.82;;
59127;SDS011;44912;52.754;5.994;2024-01-30T06:04:11;18.15;;;12.40;;
59127;SDS011;44912;52.754;5.994;2024-01-30T06:06:37;17.50;;;12.77;;
59127;SDS011;44912;52.754;5.994;2024-01-30T06:09:03;17.75;;;12.35;;
59127;SDS011;44912;52.754;5.994;2024-01-30T06:11:28;18.17;;;12.77;;
59127;SDS011;44912;52.754;5.994;2024-01-30T06:13:54;17.13;;;12.63;;
59127;SDS011;44912;52.754;5.994;2024-01-30T06:16:19;19.27;;;13.05;;
59127;SDS011;44912;52.754;5.994;2024-01-30T06:18:46;16.98;;;12.13;;
59127;SDS011;44912;52.754;5.994;2024-01-30T06:21:12;17.83;;;12.77;;
59127;SDS011;44912;52.754;5.994;2024-01-30T06:23:38;18.35;;;12.32;;
59127;SDS011;44912;52.754;5.994;2024-01-30T06:26:04;16.30;;;11.27;;
59127;SDS011;44912;52.754;5.994;2024-01-30T06:28:31;16.13;;;11.93;;
59127;SDS011;44912;52.754;5.994;2024-01-30T06:30:57;16.52;;;11.63;;
59127;SDS011;44912;52.754;5.994;2024-01-30T06:33:22;19.25;;;11.93;;
59127;SDS011;44912;52.754;5.994;2024-01-30T06:35:48;17.77;;;12.65;;
59127;SDS011;44912;52.754;5.994;2024-01-30T06:38:13;21.65;;;12.27;;
59127;SDS011;44912;52.754;5.994;2024-01-30T06:40:40;19.27;;;12.77;;
59127;SDS011;44912;52.754;5.994;2024-01-30T06:43:06;20.38;;;11.35;;
59127;SDS011;44912;52.754;5.994;2024-01-30T06:45:33;17.15;;;11.80;;
59127;SDS011;44912;52.754;5.994;2024-01-30T06:47:59;18.92;;;11.70;;
59127;SDS011;44912;52.754;5.994;2024-01-30T06:50:25;17.17;;;11.55;;
59127;SDS011;44912;52.754;5.994;2024-01-30T06:52:51;18.83;;;11.75;;
59127;SDS011;44912;52.754;5.994;2024-01-30T06:55:17;16.35;;;11.07;;
59127;SDS011;44912;52.754;5.994;2024-01-30T06:57:43;15.85;;;11.13;;
59127;SDS011;44912;52.754;5.994;2024-01-30T07:00:09;16.30;;;11.75;;
59127;SDS011;44912;52.754;5.994;2024-01-30T07:02:35;16.73;;;11.23;;
59127;SDS011;44912;52.754;5.994;2024-01-30T07:05:01;18.65;;;11.88;;
59127;SDS011;44912;52.754;5.994;2024-01-30T07:07:27;15.13;;;11.05;;
59127;SDS011;44912;52.754;5.994;2024-01-30T07:09:53;15.85;;;11.32;;
59127;SDS011;44912;52.754;5.994;2024-01-30T07:12:21;16.95;;;11.30;;
59127;SDS011;44912;52.754;5.994;2024-01-30T07:14:48;17.27;;;11.77;;
59127;SDS011;44912;52.754;5.994;2024-01-30T07:17:13;17.15;;;11.13;;
59127;SDS011;44912;52.754;5.994;2024-01-30T07:19:39;15.88;;;10.57;;
59127;SDS011;44912;52.754;5.994;2024-01-30T07:22:04;17.25;;;11.65;;
59127;SDS011;44912;52.754;5.994;2024-01-30T07:24:30;18.10;;;12.13;;
59127;SDS011;44912;52.754;5.994;2024-01-30T07:26:56;18.70;;;11.65;;
59127;SDS011;44912;52.754;5.994;2024-01-30T07:29:21;16.42;;;11.05;;
59127;SDS011;44912;52.754;5.994;2024-01-30T07:31:47;17.25;;;10.57;;
59127;SDS011;44912;52.754;5.994;2024-01-30T07:34:13;17.08;;;10.90;;
59127;SDS011;44912;52.754;5.994;2024-01-30T07:36:39;17.77;;;11.57;;
59127;SDS011;44912;52.754;5.994;2024-01-30T07:39:04;15.88;;;11.40;;
59127;SDS011;44912;52.754;5.994;2024-01-30T07:41:30;14.88;;;11.00;;
59127;SDS011;44912;52.754;5.994;2024-01-30T07:43:55;16.73;;;11.32;;
59127;SDS011;44912;52.754;5.994;2024-01-30T07:46:21;16.42;;;11.30;;
59127;SDS011;44912;52.754;5.994;2024-01-30T07:48:47;19.33;;;11.55;;
59127;SDS011;44912;52.754;5.994;2024-01-30T07:51:12;16.52;;;11.35;;
59127;SDS011;44912;52.754;5.994;2024-01-30T07:53:38;18.10;;;10.82;;
59127;SDS011;44912;52.754;5.994;2024-01-30T07:56:03;18.30;;;12.73;;
59127;SDS011;44912;52.754;5.994;2024-01-30T07:58:30;18.83;;;12.02;;
59127;SDS011;44912;52.754;5.994;2024-01-30T08:00:56;16.45;;;11.27;;
59127;SDS011;44912;52.754;5.994;2024-01-30T08:03:23;19.58;;;10.90;;
59127;SDS011;44912;52.754;5.994;2024-01-30T08:05:49;16.23;;;11.38;;
59127;SDS011;44912;52.754;5.994;2024-01-30T08:08:14;18.23;;;11.50;;
59127;SDS011;44912;52.754;5.994;2024-01-30T08:10:40;19.30;;;11.27;;
59127;SDS011;44912;52.754;5.994;2024-01-30T08:13:06;18.08;;;11.35;;
59127;SDS011;44912;52.754;5.994;2024-01-30T08:15:33;16.10;;;10.85;;
59127;SDS011;44912;52.754;5.994;2024-01-30T08:17:59;17.15;;;11.18;;
59127;SDS011;44912;52.754;5.994;2024-01-30T08:20:25;17.90;;;11.25;;
59127;SDS011;44912;52.754;5.994;2024-01-30T08:22:51;19.48;;;12.02;;
59127;SDS011;44912;52.754;5.994;2024-01-30T08:25:17;16.52;;;11.00;;
59127;SDS011;44912;52.754;5.994;2024-01-30T08:27:42;20.85;;;11.93;;
59127;SDS011;44912;52.754;5.994;2024-01-30T08:30:09;16.08;;;10.82;;
59127;SDS011;44912;52.754;5.994;2024-01-30T08:32:35;15.55;;;11.43;;
59127;SDS011;44912;52.754;5.994;2024-01-30T08:35:01;16.27;;;10.98;;
59127;SDS011;44912;52.754;5.994;2024-01-30T08:37:29;17.20;;;11.18;;
59127;SDS011;44912;52.754;5.994;2024-01-30T08:39:55;16.63;;;11.25;;
59127;SDS011;44912;52.754;5.994;2024-01-30T08:42:21;19.40;;;10.73;;
59127;SDS011;44912;52.754;5.994;2024-01-30T08:44:48;17.20;;;11.68;;
59127;SDS011;44912;52.754;5.994;2024-01-30T08:47:14;17.92;;;10.80;;
59127;SDS011;44912;52.754;5.994;2024-01-30T08:49:42;14.82;;;10.63;;
59127;SDS011;44912;52.754;5.994;2024-01-30T08:52:09;17.30;;;11.25;;
59127;SDS011;44912;52.754;5.994;2024-01-30T08:54:37;18.23;;;11.13;;
59127;SDS011;44912;52.754;5.994;2024-01-30T08:57:03;23.02;;;11.40;;
59127;SDS011;44912;52.754;5.994;2024-01-30T08:59:29;20.27;;;11.68;;
59127;SDS011;44912;52.754;5.994;2024-01-30T09:01:55;17.13;;;11.32;;
59127;SDS011;44912;52.754;5.994;2024-01-30T09:04:22;16.30;;;11.45;;
59127;SDS011;44912;52.754;5.994;2024-01-30T09:06:48;18.52;;;11.82;;
59127;SDS011;44912;52.754;5.994;2024-01-30T09:09:14;17.60;;;11.45;;
59127;SDS011;44912;52.754;5.994;2024-01-30T09:11:40;17.65;;;11.50;;
59127;SDS011;44912;52.754;5.994;2024-01-30T09:14:06;17.63;;;12.07;;
59127;SDS011;44912;52.754;5.994;2024-01-30T09:16:31;15.65;;;10.95;;
59127;SDS011;44912;52.754;5.994;2024-01-30T09:18:57;16.58;;;10.80;;
59127;SDS011;44912;52.754;5.994;2024-01-30T09:21:23;17.80;;;11.55;;
59127;SDS011;44912;52.754;5.994;2024-01-30T09:23:48;17.08;;;11.55;;
59127;SDS011;44912;52.754;5.994;2024-01-30T09:26:14;17.55;;;11.05;;
59127;SDS011;44912;52.754;5.994;2024-01-30T09:28:40;18.20;;;11.23;;
59127;SDS011;44912;52.754;5.994;2024-01-30T09:31:10;18.27;;;11.35;;
59127;SDS011;44912;52.754;5.994;2024-01-30T09:33:37;18.23;;;10.77;;
59127;SDS011;44912;52.754;5.994;2024-01-30T09:36:04;19.42;;;11.38;;
59127;SDS011;44912;52.754;5.994;2024-01-30T09:38:30;19.23;;;11.45;;
59127;SDS011;44912;52.754;5.994;2024-01-30T09:40:56;17.25;;;10.82;;
59127;SDS011;44912;52.754;5.994;2024-01-30T09:43:28;18.05;;;11.40;;
59127;SDS011;44912;52.754;5.994;2024-01-30T09:45:58;18.52;;;11.25;;
59127;SDS011;44912;52.754;5.994;2024-01-30T09:48:26;20.77;;;11.35;;
59127;SDS011;44912;52.754;5.994;2024-01-30T09:50:52;20.60;;;11.38;;
59127;SDS011;44912;52.754;5.994;2024-01-30T09:53:18;19.08;;;11.23;;
59127;SDS011;44912;52.754;5.994;2024-01-30T09:55:45;16.58;;;10.95;;
59127;SDS011;44912;52.754;5.994;2024-01-30T09:58:12;19.67;;;11.68;;
59127;SDS011;44912;52.754;5.994;2024-01-30T10:00:38;21.77;;;12.27;;
59127;SDS011;44912;52.754;5.994;2024-01-30T10:03:04;17.13;;;11.35;;
59127;SDS011;44912;52.754;5.994;2024-01-30T10:05:30;18.63;;;11.38;;
59127;SDS011;44912;52.754;5.994;2024-01-30T10:07:58;19.58;;;12.23;;
59127;SDS011;44912;52.754;5.994;2024-01-30T10:10:24;18.80;;;11.80;;
59127;SDS011;44912;52.754;5.994;2024-01-30T10:12:51;18.88;;;11.38;;
59127;SDS011;44912;52.754;5.994;2024-01-30T10:15:17;18.45;;;10.60;;
59127;SDS011;44912;52.754;5.994;2024-01-30T10:17:44;22.13;;;11.93;;
59127;SDS011;44912;52.754;5.994;2024-01-30T10:20:10;19.30;;;11.20;;
59127;SDS011;44912;52.754;5.994;2024-01-30T10:22:36;18.80;;;12.10;;
59127;SDS011;44912;52.754;5.994;2024-01-30T10:25:02;17.73;;;12.23;;
59127;SDS011;44912;52.754;5.994;2024-01-30T10:27:28;20.15;;;11.95;;
59127;SDS011;44912;52.754;5.994;2024-01-30T10:29:54;19.33;;;12.02;;
59127;SDS011;44912;52.754;5.994;2024-01-30T10:32:20;18.65;;;11.43;;
59127;SDS011;44912;52.754;5.994;2024-01-30T10:34:46;19.23;;;11.32;;
59127;SDS011;44912;52.754;5.994;2024-01-30T10:37:12;24.52;;;12.15;;
59127;SDS011;44912;52.754;5.994;2024-01-30T10:39:41;18.05;;;12.23;;
59127;SDS011;44912;52.754;5.994;2024-01-30T10:42:12;20.63;;;12.10;;
59127;SDS011;44912;52.754;5.994;2024-01-30T10:47:34;20.52;;;11.40;;
59127;SDS011;44912;52.754;5.994;2024-01-30T10:50:01;18.42;;;12.35;;
59127;SDS011;44912;52.754;5.994;2024-01-30T10:52:28;20.45;;;12.93;;
59127;SDS011;44912;52.754;5.994;2024-01-30T10:54:55;19.98;;;12.32;;
59127;SDS011;44912;52.754;5.994;2024-01-30T10:57:24;18.38;;;11.80;;
59127;SDS011;44912;52.754;5.994;2024-01-30T10:59:58;22.25;;;12.73;;
59127;SDS011;44912;52.754;5.994;2024-01-30T11:02:26;19.35;;;12.52;;
59127;SDS011;44912;52.754;5.994;2024-01-30T11:04:56;20.75;;;12.20;;
59127;SDS011;44912;52.754;5.994;2024-01-30T11:07:24;20.67;;;12.98;;
59127;SDS011;44912;52.754;5.994;2024-01-30T11:09:52;20.70;;;13.10;;
59127;SDS011;44912;52.754;5.994;2024-01-30T11:12:27;21.00;;;12.65;;
59127;SDS011;44912;52.754;5.994;2024-01-30T11:20:30;20.75;;;10.85;;
59127;SDS011;44912;52.754;5.994;2024-01-30T11:22:57;23.80;;;9.73;;
59127;SDS011;44912;52.754;5.994;2024-01-30T11:25:23;16.88;;;7.70;;
59127;SDS011;44912;52.754;5.994;2024-01-30T11:27:51;18.73;;;6.70;;
59127;SDS011;44912;52.754;5.994;2024-01-30T11:30:25;13.85;;;5.57;;
59127;SDS011;44912;52.754;5.994;2024-01-30T11:35:40;13.73;;;5.30;;
59127;SDS011;44912;52.754;5.994;2024-01-30T11:38:07;10.93;;;4.93;;
59127;SDS011;44912;52.754;5.994;2024-01-30T11:40:36;14.25;;;5.30;;
59127;SDS011;44912;52.754;5.994;2024-01-30T11:43:03;12.68;;;4.32;;
59127;SDS011;44912;52.754;5.994;2024-01-30T11:45:30;12.57;;;4.28;;
59127;SDS011;44912;52.754;5.994;2024-01-30T11:47:57;8.95;;;3.60;;
59127;SDS011;44912;52.754;5.994;2024-01-30T11:50:25;11.30;;;4.15;;
59127;SDS011;44912;52.754;5.994;2024-01-30T11:52:51;9.52;;;4.20;;
59127;SDS011;44912;52.754;5.994;2024-01-30T11:55:16;11.10;;;3.53;;
59127;SDS011;44912;52.754;5.994;2024-01-30T11:57:43;9.68;;;3.53;;
59127;SDS011;44912;52.754;5.994;2024-01-30T12:00:17;9.38;;;3.47;;
59127;SDS011;44912;52.754;5.994;2024-01-30T12:02:44;6.63;;;2.65;;
59127;SDS011;44912;52.754;5.994;2024-01-30T12:05:15;6.95;;;2.65;;
59127;SDS011;44912;52.754;5.994;2024-01-30T12:07:43;9.25;;;3.03;;
59127;SDS011;44912;52.754;5.994;2024-01-30T12:10:09;4.30;;;1.88;;
59127;SDS011;44912;52.754;5.994;2024-01-30T12:12:36;4.63;;;1.60;;
59127;SDS011;44912;52.754;5.994;2024-01-30T12:15:02;3.67;;;1.40;;
59127;SDS011;44912;52.754;5.994;2024-01-30T12:17:34;5.15;;;1.63;;
59127;SDS011;44912;52.754;5.994;2024-01-30T12:20:06;4.47;;;1.55;;
59127;SDS011;44912;52.754;5.994;2024-01-30T12:22:37;5.18;;;1.70;;
59127;SDS011;44912;52.754;5.994;2024-01-30T12:25:15;4.68;;;1.60;;
59127;SDS011;44912;52.754;5.994;2024-01-30T12:27:43;6.43;;;1.80;;
59127;SDS011;44912;52.754;5.994;2024-01-30T12:30:11;5.93;;;1.90;;
59127;SDS011;44912;52.754;5.994;2024-01-30T12:32:42;3.05;;;1.23;;
59127;SDS011;44912;52.754;5.994;2024-01-30T12:35:09;4.80;;;1.50;;
59127;SDS011;44912;52.754;5.994;2024-01-30T12:37:36;6.35;;;1.63;;
59127;SDS011;44912;52.754;5.994;2024-01-30T12:40:02;5.75;;;2.08;;
59127;SDS011;44912;52.754;5.994;2024-01-30T12:42:29;7.15;;;1.48;;
59127;SDS011;44912;52.754;5.994;2024-01-30T12:44:57;7.47;;;1.70;;
59127;SDS011;44912;52.754;5.994;2024-01-30T12:47:23;5.65;;;1.85;;
59127;SDS011;44912;52.754;5.994;2024-01-30T12:49:50;9.00;;;2.28;;
59127;SDS011;44912;52.754;5.994;2024-01-30T12:52:18;5.43;;;1.52;;
59127;SDS011;44912;52.754;5.994;2024-01-30T12:54:45;5.32;;;1.80;;
59127;SDS011;44912;52.754;5.994;2024-01-30T12:57:11;7.38;;;1.50;;
59127;SDS011;44912;52.754;5.994;2024-01-30T12:59:37;6.70;;;1.40;;
59127;SDS011;44912;52.754;5.994;2024-01-30T13:02:03;4.45;;;1.10;;
59127;SDS011;44912;52.754;5.994;2024-01-30T13:04:29;4.18;;;1.40;;
59127;SDS011;44912;52.754;5.994;2024-01-30T13:06:55;5.75;;;1.63;;
59127;SDS011;44912;52.754;5.994;2024-01-30T13:09:20;4.80;;;1.50;;
59127;SDS011;44912;52.754;5.994;2024-01-30T13:11:48;6.03;;;1.80;;
59127;SDS011;44912;52.754;5.994;2024-01-30T13:14:14;4.38;;;1.40;;
59127;SDS011;44912;52.754;5.994;2024-01-30T13:16:40;4.60;;;1.35;;
59127;SDS011;44912;52.754;5.994;2024-01-30T13:19:06;3.63;;;1.25;;
59127;SDS011;44912;52.754;5.994;2024-01-30T13:21:31;7.05;;;1.45;;
59127;SDS011;44912;52.754;5.994;2024-01-30T13:23:57;4.47;;;1.45;;
59127;SDS011;44912;52.754;5.994;2024-01-30T13:26:22;5.68;;;1.67;;
59127;SDS011;44912;52.754;5.994;2024-01-30T13:28:48;6.90;;;1.90;;
59127;SDS011;44912;52.754;5.994;2024-01-30T13:31:14;4.13;;;1.55;;
59127;SDS011;44912;52.754;5.994;2024-01-30T13:33:40;5.47;;;1.90;;
59127;SDS011;44912;52.754;5.994;2024-01-30T13:36:07;6.25;;;1.88;;
59127;SDS011;44912;52.754;5.994;2024-01-30T13:38:33;7.28;;;2.10;;
59127;SDS011;44912;52.754;5.994;2024-01-30T13:40:59;6.55;;;1.90;;
59127;SDS011;44912;52.754;5.994;2024-01-30T13:43:25;4.93;;;1.83;;
59127;SDS011;44912;52.754;5.994;2024-01-30T13:45:51;7.85;;;2.20;;
59127;SDS011;44912;52.754;5.994;2024-01-30T13:48:17;6.53;;;2.20;;
59127;SDS011;44912;52.754;5.994;2024-01-30T13:50:42;6.00;;;2.15;;
59127;SDS011;44912;52.754;5.994;2024-01-30T13:53:08;5.70;;;1.90;;
59127;SDS011;44912;52.754;5.994;2024-01-30T13:55:34;5.65;;;2.10;;
59127;SDS011;44912;52.754;5.994;2024-01-30T13:58:00;8.52;;;2.05;;
59127;SDS011;44912;52.754;5.994;2024-01-30T14:00:26;7.53;;;2.33;;
59127;SDS011;44912;52.754;5.994;2024-01-30T14:02:52;6.70;;;2.22;;
59127;SDS011;44912;52.754;5.994;2024-01-30T14:05:22;7.07;;;2.10;;
59127;SDS011;44912;52.754;5.994;2024-01-30T14:07:48;6.50;;;1.92;;
59127;SDS011;44912;52.754;5.994;2024-01-30T14:10:15;6.60;;;2.10;;
59127;SDS011;44912;52.754;5.994;2024-01-30T14:12:41;6.93;;;2.00;;
59127;SDS011;44912;52.754;5.994;2024-01-30T14:15:08;4.25;;;2.10;;
59127;SDS011;44912;52.754;5.994;2024-01-30T14:17:35;6.97;;;2.25;;
59127;SDS011;44912;52.754;5.994;2024-01-30T14:20:01;7.28;;;2.25;;
59127;SDS011;44912;52.754;5.994;2024-01-30T14:22:29;9.40;;;2.60;;
59127;SDS011;44912;52.754;5.994;2024-01-30T14:24:54;7.18;;;2.05;;
59127;SDS011;44912;52.754;5.994;2024-01-30T14:27:21;7.03;;;2.55;;
59127;SDS011;44912;52.754;5.994;2024-01-30T14:29:47;6.13;;;2.83;;
59127;SDS011;44912;52.754;5.994;2024-01-30T14:32:12;7.15;;;2.55;;